Thunder radar more information blitzortung!


Radar de pluja more information rain snow radar


Visita la nostra xarxa de llocs de meteo:

Template documentation
and downloads

And another site



No particular awareness of the weather is required.    There are no Weather-warnings

Pagina Historial Weather Underground text

Diari Resum Juny 2, 2017 Unitats:  Imperial    Mètric   Tant
« Previous Dia
SegĂźent Dia »
Diari Setmana Mensual Anual Personalitzada
  Maxima: Minima: Media:
Temperatura: 88 °F 59.7 °F 77 °F
Punt de rosada: 62.8 °F 49.1 °F 56.7 °F
Humitat: 72 % 38 % 51 %
Wind Speed: 10.9 mph 0 mph 4.3 mph
RĂ fegues de vent: 10.9 mph - -
Vent:- - SSW
Pression baro: 30.1 in 30 in -
Precipitacions: 0 in    
Historical Graphs
 
 
Dades de taula per Juny 2, 2017
Temps Temperatura Punt de rosada Pression baro Vent Wind Speed RĂ fegues de vent Humitat Rainfall Rate (Hourly)
00:01 67.3 °F 49.6 °F 30.1 in Calm     53 % 0 in
00:06 67.1 °F 49.5 °F 30.1 in Calm     53 % 0 in
00:11 66.7 °F 49.1 °F 30.1 in Calm     53 % 0 in
00:15 62.6 °F 52 °F 30 in Calm     68 % 0 in
00:16 66.6 °F 49.5 °F 30.1 in Calm     54 % 0 in
00:25 62.6 °F 52 °F 30 in NNW 1 mph 1 mph 68 % 0 in
00:35 62.2 °F 51.4 °F 30 in Calm   2 mph 68 % 0 in
00:45 61.7 °F 51.4 °F 30 in Calm   2 mph 69 % 0 in
00:55 61.2 °F 50.9 °F 30 in Calm   2 mph 69 % 0 in
01:05 60.4 °F 50.2 °F 30 in SW 1 mph 2 mph 69 % 0 in
01:15 60.1 °F 49.8 °F 30 in WSW 2 mph 3 mph 69 % 0 in
01:25 59.7 °F 49.8 °F 30 in SW 3 mph 3 mph 70 % 0 in
01:35 59.7 °F 50.7 °F 30 in SW 1 mph 2 mph 72 % 0 in
01:45 59.9 °F 50.7 °F 30 in SW 2 mph 2 mph 72 % 0 in
01:55 60.1 °F 51.1 °F 30 in SW 2 mph 3 mph 72 % 0 in
02:05 60.3 °F 51.3 °F 30.1 in SW 1 mph 2 mph 72 % 0 in
02:15 61.2 °F 52.2 °F 30.1 in Calm   1 mph 72 % 0 in
02:25 62.1 °F 52.5 °F 30.1 in Calm   1 mph 71 % 0 in
02:35 63.3 °F 53.4 °F 30.1 in South 1 mph 2 mph 70 % 0 in
02:45 64 °F 53.2 °F 30.1 in ENE 1 mph 2 mph 68 % 0 in
02:55 64.4 °F 53.6 °F 30.1 in NE 2 mph 2 mph 68 % 0 in
03:05 64.8 °F 53.4 °F 30.1 in ENE 2 mph 4 mph 67 % 0 in
03:15 65.5 °F 53.8 °F 30.1 in ENE 2 mph 3 mph 66 % 0 in
03:25 66.2 °F 53.8 °F 30.1 in NE 2 mph 2 mph 64 % 0 in
03:35 67.6 °F 54.7 °F 30.1 in NNE 1 mph 2 mph 63 % 0 in
03:45 67.1 °F 53.6 °F 30.1 in WSW 1 mph 3 mph 62 % 0 in
03:55 68.7 °F 55.2 °F 30.1 in SSW 1 mph 2 mph 62 % 0 in
04:10 69.4 °F 55.4 °F 30.1 in South 1 mph 3 mph 61 % 0 in
04:20 70 °F 55.6 °F 30.1 in SW 2 mph 3 mph 60 % 0 in
04:30 71.1 °F 55.9 °F 30.1 in SSW 3 mph 4 mph 59 % 0 in
04:40 72.5 °F 56.8 °F 30.1 in SSW 1 mph 3 mph 58 % 0 in
04:50 73.2 °F 56.7 °F 30.1 in SW 3 mph 3 mph 56 % 0 in
05:00 73.8 °F 57 °F 30.1 in SW 1 mph 3 mph 56 % 0 in
05:10 74.5 °F 57.7 °F 30.1 in SW 2 mph 6 mph 56 % 0 in
05:20 74.7 °F 57.9 °F 30.1 in SW 2 mph 5 mph 56 % 0 in
10:21 74.7 °F 57.9 °F 30.1 in WSW 3.5 mph 3.8 mph 56 % 0 in
10:26 74.8 °F 58.1 °F 30.1 in SSW 3.3 mph 3.3 mph 56 % 0 in
10:31 74.8 °F 58.1 °F 30.1 in West 4.6 mph 4.6 mph 56 % 0 in
10:36 75 °F 58.3 °F 30.1 in SSW 4.9 mph 4.9 mph 56 % 0 in
10:41 75.6 °F 58.3 °F 30.1 in SSW 4.7 mph 4.7 mph 55 % 0 in
10:46 76.3 °F 58.5 °F 30.1 in South 5.8 mph 5.8 mph 54 % 0 in
10:51 76.3 °F 58.5 °F 30.1 in ESE 3.5 mph 3.5 mph 54 % 0 in
10:56 77.4 °F 58.8 °F 30.1 in WSW 2.3 mph 2.4 mph 53 % 0 in
11:01 78.6 °F 60.1 °F 30.1 in SW 3.8 mph 3.8 mph 53 % 0 in
11:06 78.4 °F 59.4 °F 30 in South 3.5 mph 3.5 mph 52 % 0 in
11:11 79 °F 59.4 °F 30 in SSW 2.3 mph 2.3 mph 51 % 0 in
11:16 79.7 °F 60.1 °F 30 in SSW 5.8 mph 5.8 mph 51 % 0 in
11:21 79.5 °F 59.7 °F 30 in South 4.6 mph 4.6 mph 51 % 0 in
11:26 80.1 °F 59.7 °F 30 in WSW 4.6 mph 4.6 mph 50 % 0 in
11:31 80.1 °F 59.7 °F 30 in South 4.6 mph 4.6 mph 50 % 0 in
11:36 80.4 °F 60.1 °F 30 in SSE 4.6 mph 4.6 mph 50 % 0 in
11:41 80.4 °F 59.5 °F 30 in South 4.6 mph 4.6 mph 49 % 0 in
11:46 81.5 °F 59.9 °F 30 in South 3.5 mph 3.5 mph 48 % 0 in
11:51 82 °F 59.7 °F 30 in SSE 4.6 mph 4.6 mph 47 % 0 in
11:56 82.4 °F 60.1 °F 30 in SW 2.3 mph 2.3 mph 47 % 0 in
12:01 82.2 °F 60.1 °F 30 in SW 6.9 mph 6.9 mph 47 % 0 in
12:06 81.3 °F 58.6 °F 30 in SW 9.2 mph 9.2 mph 46 % 0 in
12:11 81.5 °F 58.6 °F 30 in SW 6.2 mph 6.2 mph 46 % 0 in
12:16 81.3 °F 57.9 °F 30 in South 5.8 mph 5.8 mph 45 % 0 in
12:21 81.7 °F 58.3 °F 30 in WSW 8.1 mph 8.1 mph 45 % 0 in
12:26 82 °F 58.6 °F 30 in SSW 5.8 mph 5.8 mph 45 % 0 in
12:31 83.1 °F 59.5 °F 30 in WSW 5.8 mph 5.8 mph 45 % 0 in
12:36 83.1 °F 59.5 °F 30 in SSW 6.9 mph 6.9 mph 45 % 0 in
12:41 82.9 °F 58.8 °F 30 in South 4.9 mph 4.9 mph 44 % 0 in
12:46 83.7 °F 59.4 °F 30 in SW 6.4 mph 6.4 mph 44 % 0 in
12:51 83.3 °F 58.5 °F 30 in WSW 7.4 mph 7.4 mph 43 % 0 in
12:56 83.7 °F 58.8 °F 30 in WSW 8.1 mph 8.1 mph 43 % 0 in
13:01 84.6 °F 58.8 °F 30 in SE 3.5 mph 3.5 mph 42 % 0 in
13:06 85.5 °F 59.7 °F 30 in SW 3.6 mph 3.6 mph 42 % 0 in
13:07 85.5 °F 59.7 °F 30 in South 4.6 mph 4.6 mph 42 % 0 in
13:12 86.7 °F 61 °F 30 in SSE 3.5 mph 3.5 mph 42 % 0 in
13:17 87.3 °F 60.6 °F 30 in SW 3.5 mph 3.5 mph 41 % 0 in
13:22 86 °F 60.3 °F 30 in South 5.8 mph 5.8 mph 42 % 0 in
13:27 84.7 °F 59.7 °F 30 in ESE 3.8 mph 3.8 mph 43 % 0 in
13:32 84.2 °F 59.9 °F 30 in East 5.8 mph 5.8 mph 44 % 0 in
13:37 83.5 °F 59.9 °F 30 in ESE 6.9 mph 6.9 mph 45 % 0 in
13:42 82.8 °F 59.4 °F 30 in SE 9.2 mph 9.2 mph 45 % 0 in
13:47 82 °F 58.6 °F 30 in SE 8.1 mph 8.1 mph 45 % 0 in
13:52 82.2 °F 59.4 °F 30 in NE 5.8 mph 5.8 mph 46 % 0 in
13:57 82.2 °F 59.4 °F 30 in WSW 8.1 mph 8.1 mph 46 % 0 in
14:02 83.3 °F 61 °F 30 in SSE 3.5 mph 3.5 mph 47 % 0 in
14:07 83.1 °F 60.3 °F 30 in East 4.6 mph 4.6 mph 46 % 0 in
14:12 83.3 °F 60.4 °F 30 in ESE 5.8 mph 5.8 mph 46 % 0 in
14:17 83.3 °F 60.4 °F 30 in SSE 5.8 mph 5.8 mph 46 % 0 in
14:22 85.1 °F 61.3 °F 30 in South 6.9 mph 6.9 mph 45 % 0 in
14:27 86 °F 61.5 °F 30 in SE 2.3 mph 2.3 mph 44 % 0 in
14:32 87.3 °F 62.8 °F 30 in South 3.5 mph 3.5 mph 44 % 0 in
14:37 87.4 °F 62.8 °F 30 in SSW 5.9 mph 5.9 mph 44 % 0 in
14:42 86.9 °F 61.7 °F 30 in SW 5.8 mph 5.8 mph 43 % 0 in
14:47 86.5 °F 61.3 °F 30 in South 5.8 mph 5.8 mph 43 % 0 in
14:52 87.1 °F 61.9 °F 30 in West 5.8 mph 5.8 mph 43 % 0 in
14:57 87.1 °F 61.2 °F 30 in SW 6.9 mph 6.9 mph 42 % 0 in
15:02 86.5 °F 60.1 °F 30 in SW 6 mph 6 mph 41 % 0 in
15:07 86.7 °F 60.3 °F 30 in WSW 6.9 mph 6.9 mph 41 % 0 in
15:12 87.8 °F 60.4 °F 30 in WNW 4.6 mph 4.6 mph 40 % 0 in
15:17 88 °F 60.6 °F 30 in SSW 3.5 mph 3.5 mph 40 % 0 in
15:22 86.7 °F 59.5 °F 30 in South 8.1 mph 8.1 mph 40 % 0 in
15:27 87.8 °F 59.7 °F 30 in SSW 3.6 mph 3.6 mph 39 % 0 in
15:32 86.7 °F 58.8 °F 30 in West 9.2 mph 9.2 mph 39 % 0 in
15:37 86.4 °F 58.5 °F 30 in WSW 8.1 mph 8.1 mph 39 % 0 in
15:42 86.9 °F 59 °F 30 in SSW 5.8 mph 5.8 mph 39 % 0 in
15:47 86.5 °F 58.6 °F 30 in SW 9.2 mph 9.2 mph 39 % 0 in
15:52 86.4 °F 57.7 °F 30 in SW 9.2 mph 9.2 mph 38 % 0 in
15:57 86 °F 58.3 °F 30 in West 6.9 mph 6.9 mph 39 % 0 in
16:02 86.7 °F 58.1 °F 30 in South 3.5 mph 3.5 mph 38 % 0 in
16:07 86.9 °F 58.3 °F 30 in SW 6.9 mph 6.9 mph 38 % 0 in
16:12 86.4 °F 57.7 °F 30 in SSW 8.1 mph 8.1 mph 38 % 0 in
16:17 85.5 °F 57 °F 30 in SW 8.1 mph 8.1 mph 38 % 0 in
16:22 85.6 °F 57.7 °F 30 in West 5.8 mph 5.8 mph 39 % 0 in
16:27 84.7 °F 57 °F 30 in South 6.9 mph 6.9 mph 39 % 0 in
16:28 84.7 °F 57 °F 30 in SW 6.9 mph 6.9 mph 39 % 0 in
16:33 84.7 °F 57 °F 30 in West 7.6 mph 7.6 mph 39 % 0 in
16:38 84.2 °F 56.7 °F 30 in South 8.1 mph 8.1 mph 39 % 0 in
16:43 83.7 °F 56.8 °F 30 in South 9.2 mph 9.2 mph 40 % 0 in
16:48 84.2 °F 56.7 °F 30 in South 9.2 mph 9.2 mph 39 % 0 in
16:53 84.4 °F 56.7 °F 30 in SSW 6.4 mph 6.4 mph 39 % 0 in
16:58 84 °F 57 °F 30 in SW 10.9 mph 10.9 mph 40 % 0 in
17:03 83.7 °F 56.8 °F 30 in WNW 9.2 mph 9.2 mph 40 % 0 in
17:08 83.7 °F 56.8 °F 30 in SW 8.1 mph 8.1 mph 40 % 0 in
17:13 83.1 °F 56.3 °F 30 in WSW 8.1 mph 8.1 mph 40 % 0 in
17:18 82.4 °F 55.8 °F 30 in SSW 10.4 mph 10.4 mph 40 % 0 in
17:23 82 °F 55.9 °F 30 in WSW 10.4 mph 10.4 mph 41 % 0 in
17:28 82.6 °F 57.2 °F 30 in SW 4.6 mph 4.6 mph 42 % 0 in
17:33 83.1 °F 57.6 °F 30 in South 6.4 mph 6.4 mph 42 % 0 in
17:34 83.1 °F 57.6 °F 30 in South 6.9 mph 6.9 mph 42 % 0 in
17:39 82 °F 56.7 °F 30 in SSW 5.8 mph 5.8 mph 42 % 0 in
17:44 82 °F 55.9 °F 30 in SW 4.6 mph 4.6 mph 41 % 0 in
17:49 82.2 °F 56.1 °F 30 in SSW 8.1 mph 8.1 mph 41 % 0 in
17:54 82 °F 55.9 °F 30 in WSW 6 mph 6 mph 41 % 0 in
17:55 81.7 °F 55.8 °F 30 in SW 7.1 mph 7.1 mph 41 % 0 in
18:00 81.5 °F 55.6 °F 30 in South 8.1 mph 8.1 mph 41 % 0 in
18:05 81.1 °F 55.9 °F 30 in SSW 6.9 mph 6.9 mph 42 % 0 in
18:06 81.1 °F 55.9 °F 30 in West 5.8 mph 5.8 mph 42 % 0 in
18:11 81.7 °F 56.5 °F 30 in SSW 9.2 mph 9.2 mph 42 % 0 in
18:16 81.7 °F 55.8 °F 30 in SW 5.8 mph 5.8 mph 41 % 0 in
18:21 81.3 °F 55.9 °F 30 in SW 4.6 mph 4.6 mph 42 % 0 in
18:26 82 °F 56.7 °F 30 in SSE 6.4 mph 6.4 mph 42 % 0 in
18:31 81.7 °F 56.5 °F 30 in SW 5.9 mph 5.9 mph 42 % 0 in
18:36 82 °F 56.7 °F 30 in SW 4.9 mph 4.9 mph 42 % 0 in
18:41 81.7 °F 55.8 °F 30 in SSE 5.8 mph 5.8 mph 41 % 0 in
18:46 81.7 °F 55.8 °F 30 in SW 3.5 mph 3.5 mph 41 % 0 in
18:51 81.5 °F 55.6 °F 30 in WSW 6.9 mph 6.9 mph 41 % 0 in
18:56 80.6 °F 54.7 °F 30 in West 3.6 mph 3.6 mph 41 % 0 in
19:01 80.1 °F 54.9 °F 30 in SW 5.8 mph 5.8 mph 42 % 0 in
19:06 79.5 °F 54.3 °F 30 in SW 7.6 mph 7.6 mph 42 % 0 in
19:11 79 °F 54 °F 30 in WSW 5.8 mph 5.8 mph 42 % 0 in
19:16 78.3 °F 53.2 °F 30 in SW 5.8 mph 5.8 mph 42 % 0 in
19:21 78.1 °F 53.8 °F 30 in WSW 2.3 mph 2.3 mph 43 % 0 in
19:26 77.7 °F 53.4 °F 30 in SW 5.8 mph 5.8 mph 43 % 0 in
19:31 77.7 °F 54.1 °F 30 in SW 5.4 mph 5.4 mph 44 % 0 in
19:36 77.2 °F 53.6 °F 30 in WSW 3.5 mph 3.5 mph 44 % 0 in
19:41 76.6 °F 53.8 °F 30 in SW 3.5 mph 3.5 mph 45 % 0 in
19:46 76.3 °F 54 °F 30 in SW 3.5 mph 3.5 mph 46 % 0 in
19:51 75.9 °F 53.6 °F 30 in SSW 1.2 mph   46 % 0 in
19:56 75.7 °F 53.4 °F 30 in ESE 1.2 mph 1.2 mph 46 % 0 in
20:01 75.9 °F 53.6 °F 30 in SW 1.2 mph   46 % 0 in
20:06 75.7 °F 53.4 °F 30 in SSW 2.3 mph 2.3 mph 46 % 0 in
20:11 75.7 °F 54.1 °F 30 in SW 1.6 mph 1.6 mph 47 % 0 in
20:13 75.6 °F 54 °F 30 in WSW 2.3 mph 2.3 mph 47 % 0 in
20:18 75.7 °F 54.1 °F 30 in Calm     47 % 0 in
20:23 75 °F 53.4 °F 30 in ENE 2.3 mph 2.3 mph 47 % 0 in
20:28 74.7 °F 54.9 °F 30 in WSW 6.9 mph 6.9 mph 50 % 0 in
20:33 74.5 °F 55.2 °F 30 in NE 2.3 mph 2.3 mph 51 % 0 in
20:38 74.3 °F 56.7 °F 30 in ESE 5.8 mph 5.8 mph 54 % 0 in
20:43 73.9 °F 57.4 °F 30 in ESE 5.8 mph 5.8 mph 56 % 0 in
20:48 73.8 °F 57 °F 30 in NNE 4.6 mph 4.6 mph 56 % 0 in
20:53 73.4 °F 56.7 °F 30 in ESE 6.4 mph 6.4 mph 56 % 0 in
20:58 73.2 °F 57 °F 30 in NNE 5.8 mph 5.8 mph 57 % 0 in
21:03 72.9 °F 57.2 °F 30 in East 4.6 mph 4.6 mph 58 % 0 in
21:06 72.9 °F 57.2 °F 30 in ENE 4.6 mph 4.6 mph 58 % 0 in
21:11 72.7 °F 57.6 °F 30 in ENE 4.6 mph 4.6 mph 59 % 0 in
21:16 72.5 °F 57.4 °F 30 in ESE 2.3 mph 2.3 mph 59 % 0 in
21:21 72.3 °F 57.7 °F 30 in ENE 3.5 mph 3.5 mph 60 % 0 in
21:26 72.3 °F 57.7 °F 30 in SE 2.3 mph 2.3 mph 60 % 0 in
21:31 72 °F 57.4 °F 30 in SSE 4.6 mph 4.6 mph 60 % 0 in
21:36 72 °F 57.4 °F 30 in ENE 2.9 mph 2.9 mph 60 % 0 in
21:41 71.8 °F 57 °F 30 in ESE 2.3 mph 2.3 mph 60 % 0 in
21:46 71.6 °F 57 °F 30 in SSW 1.4 mph 1.4 mph 60 % 0 in
21:47 71.6 °F 57 °F 30 in SSW 1.2 mph   60 % 0 in
21:52 71.4 °F 57.4 °F 30 in SW 0.9 mph   61 % 0 in
21:57 71.2 °F 57 °F 30 in WSW 2.6 mph 2.6 mph 61 % 0 in
22:02 71.2 °F 57 °F 30 in WSW 2.3 mph 2.3 mph 61 % 0 in
22:07 71.1 °F 57.4 °F 30 in SW 2.3 mph 2.3 mph 62 % 0 in
22:12 70.9 °F 56.8 °F 30 in SSW 2.3 mph 2.3 mph 61 % 0 in
22:17 70.5 °F 56.5 °F 30 in WSW 5.8 mph 5.8 mph 61 % 0 in
22:22 70.3 °F 56.7 °F 30 in West 3.5 mph 3.5 mph 62 % 0 in
22:27 70.5 °F 56.5 °F 30 in WSW 3.5 mph 3.5 mph 61 % 0 in
22:32 70.5 °F 56.5 °F 30 in SW 2.6 mph 2.6 mph 61 % 0 in
22:37 70.5 °F 55.9 °F 30 in WSW 3.5 mph 3.5 mph 60 % 0 in
22:42 70.3 °F 55.8 °F 30 in SW 3.8 mph 3.8 mph 60 % 0 in
22:47 70.2 °F 55.6 °F 30 in West 3.5 mph 3.5 mph 60 % 0 in
22:52 70.2 °F 55.6 °F 30 in SSW 2.3 mph 2.3 mph 60 % 0 in
22:57 70.2 °F 55.6 °F 30 in WSW 2.4 mph 2.4 mph 60 % 0 in
23:02 70.2 °F 55.6 °F 30 in WSW 2.9 mph 2.9 mph 60 % 0 in
23:07 70 °F 55.9 °F 30 in SW 1.4 mph 1.4 mph 61 % 0 in
23:12 69.8 °F 55.8 °F 30 in Calm     61 % 0 in
23:17 69.8 °F 56.1 °F 30 in East 3.5 mph 3.5 mph 62 % 0 in
23:22 70 °F 55.9 °F 30 in ENE 2.3 mph 2.3 mph 61 % 0 in
23:27 69.8 °F 56.1 °F 30 in ENE 1.2 mph   62 % 0 in
23:32 70 °F 56.5 °F 30 in ENE 1.2 mph 1.2 mph 62 % 0 in
23:37 70 °F 56.5 °F 30 in Calm     62 % 0 in
23:42 69.8 °F 56.1 °F 30 in Calm     62 % 0 in
23:47 69.8 °F 56.1 °F 30 in SW 2.3 mph 2.3 mph 62 % 0 in
23:52 69.6 °F 55.9 °F 30 in WSW 2.3 mph 2.3 mph 62 % 0 in
23:57 69.4 °F 55.9 °F 30 in WSW 2.3 mph 2.3 mph 62 % 0 in
Meteo Sesrovires
Elogis d' Weather Underground - 3.5 mb

Guio original per  Jim McMurry - jmcmurry@mwt.net Adaptat per a la plantilla per  Wim van der Kuil - Leuven-Template.eu

Trobareu la nostra informacio del temps tambe a:

Weather Underground

AWEKAS